Time;durP1;ratioP1;P1;durP2;ratioP2;P2;SDS_P1;SDS_P2;PMS_P1;PMS_P2;Temp;Humidity;BMP_temperature;BMP_pressure;BME280_temperature;BME280_humidity;BME280_pressure;Samples;Min_cycle;Max_cycle;Signal;HPM_P1;HPM_P2
2023/06/03 00:00:43;;;;;;;6.40;4.10;;;;;;;;;;4967435;28;20277;-72
2023/06/03 00:03:12;;;;;;;4.30;3.83;;;;;;;;;;4966659;28;20241;-72
2023/06/03 00:05:37;;;;;;;7.03;4.57;;;;;;;;;;4975575;28;20268;-72
2023/06/03 00:08:02;;;;;;;7.77;4.47;;;;;;;;;;4966768;28;20348;-72
2023/06/03 00:10:28;;;;;;;8.50;5.03;;;;;;;;;;4968072;28;20186;-72
2023/06/03 00:12:53;;;;;;;6.70;4.00;;;;;;;;;;4978747;28;20236;-72
2023/06/03 00:15:18;;;;;;;10.97;4.83;;;;;;;;;;4970815;28;20185;-71
2023/06/03 00:17:43;;;;;;;5.83;4.10;;;;;;;;;;4978406;28;20333;-72
2023/06/03 00:20:09;;;;;;;6.73;3.60;;;;;;;;;;4973242;28;20197;-72
2023/06/03 00:22:35;;;;;;;6.47;4.10;;;;;;;;;;4969817;28;20188;-72
2023/06/03 00:25:00;;;;;;;11.83;4.10;;;;;;;;;;4982714;28;20186;-72
2023/06/03 00:27:26;;;;;;;6.30;4.63;;;;;;;;;;4968753;28;20212;-71
2023/06/03 00:29:51;;;;;;;5.60;4.27;;;;;;;;;;4968832;28;20202;-72
2023/06/03 00:32:16;;;;;;;9.53;5.23;;;;;;;;;;4967868;28;20313;-72
2023/06/03 00:34:41;;;;;;;6.63;4.20;;;;;;;;;;4970012;28;20205;-71
2023/06/03 00:37:06;;;;;;;6.50;4.20;;;;;;;;;;4972271;28;20195;-71
2023/06/03 00:39:32;;;;;;;6.00;3.97;;;;;;;;;;4986213;28;20293;-71
2023/06/03 00:41:58;;;;;;;5.77;3.90;;;;;;;;;;4968478;28;20218;-71
2023/06/03 00:44:23;;;;;;;7.67;4.40;;;;;;;;;;4970071;28;20189;-71
2023/06/03 00:46:48;;;;;;;6.23;3.83;;;;;;;;;;4991141;28;20191;-71
2023/06/03 00:49:14;;;;;;;7.57;3.90;;;;;;;;;;4972321;28;20234;-71
2023/06/03 00:51:39;;;;;;;5.97;3.77;;;;;;;;;;4974502;28;20196;-71
2023/06/03 00:54:04;;;;;;;7.37;4.60;;;;;;;;;;4976332;28;20225;-71
2023/06/03 00:56:31;;;;;;;8.20;4.73;;;;;;;;;;4965729;28;20201;-71
2023/06/03 00:58:57;;;;;;;5.77;4.00;;;;;;;;;;4968798;28;20185;-71
2023/06/03 01:01:24;;;;;;;6.83;4.67;;;;;;;;;;4975551;28;20219;-71
2023/06/03 01:03:50;;;;;;;8.87;4.23;;;;;;;;;;4972927;28;20237;-71
2023/06/03 01:06:18;;;;;;;5.37;4.10;;;;;;;;;;4968491;28;20188;-72
2023/06/03 01:08:55;;;;;;;6.20;4.07;;;;;;;;;;4971141;28;20236;-71
2023/06/03 01:11:39;;;;;;;6.63;4.77;;;;;;;;;;4970900;28;20193;-71
2023/06/03 01:14:24;;;;;;;4.17;3.83;;;;;;;;;;4966338;28;20209;-71
2023/06/03 01:16:50;;;;;;;6.63;4.13;;;;;;;;;;4983898;28;20223;-71
2023/06/03 01:19:36;;;;;;;7.23;3.87;;;;;;;;;;4972752;28;20184;-71
2023/06/03 01:22:02;;;;;;;10.30;4.83;;;;;;;;;;4978666;28;20185;-71
2023/06/03 01:24:30;;;;;;;14.53;4.77;;;;;;;;;;4979282;28;20186;-71
2023/06/03 01:26:55;;;;;;;5.30;3.90;;;;;;;;;;4971719;28;20215;-71
2023/06/03 01:29:21;;;;;;;4.70;4.20;;;;;;;;;;4978229;28;20251;-71
2023/06/03 01:31:46;;;;;;;6.00;4.03;;;;;;;;;;4974218;28;20181;-72
2023/06/03 01:34:12;;;;;;;5.27;4.40;;;;;;;;;;4971129;28;20193;-72
2023/06/03 01:36:37;;;;;;;9.53;4.47;;;;;;;;;;4977777;28;20211;-72
2023/06/03 01:39:03;;;;;;;7.30;4.27;;;;;;;;;;4971768;28;20546;-71
2023/06/03 01:41:28;;;;;;;6.00;4.53;;;;;;;;;;4995361;28;20275;-71
2023/06/03 01:43:53;;;;;;;14.40;4.30;;;;;;;;;;4977687;28;20180;-71
2023/06/03 01:46:19;;;;;;;8.03;4.00;;;;;;;;;;4966411;28;20189;-71
2023/06/03 01:48:44;;;;;;;8.30;4.03;;;;;;;;;;4966797;28;20188;-72
2023/06/03 01:51:09;;;;;;;7.53;4.50;;;;;;;;;;4970083;28;20179;-71
2023/06/03 01:53:35;;;;;;;8.97;4.40;;;;;;;;;;4968724;28;20229;-72
2023/06/03 01:56:01;;;;;;;8.63;4.70;;;;;;;;;;4967643;28;20676;-71
2023/06/03 01:58:26;;;;;;;5.43;4.00;;;;;;;;;;4966490;28;20220;-71
2023/06/03 02:00:51;;;;;;;8.87;4.83;;;;;;;;;;4966474;28;20243;-71
2023/06/03 02:03:16;;;;;;;9.73;5.27;;;;;;;;;;4968343;28;20314;-71
2023/06/03 02:05:41;;;;;;;6.80;3.83;;;;;;;;;;4968672;28;20185;-71
2023/06/03 02:08:07;;;;;;;6.23;4.50;;;;;;;;;;4972275;28;20186;-72
2023/06/03 02:10:32;;;;;;;7.40;4.67;;;;;;;;;;4973406;28;20183;-71
2023/06/03 02:12:58;;;;;;;7.90;4.23;;;;;;;;;;4983077;28;20226;-72
2023/06/03 02:15:23;;;;;;;10.30;4.97;;;;;;;;;;4969229;28;20183;-72
2023/06/03 02:17:48;;;;;;;7.87;5.20;;;;;;;;;;4968859;28;20184;-71
2023/06/03 02:20:13;;;;;;;6.40;4.43;;;;;;;;;;4965019;28;20245;-72
2023/06/03 02:22:39;;;;;;;7.23;4.53;;;;;;;;;;4969636;28;20187;-72
2023/06/03 02:25:04;;;;;;;4.63;4.13;;;;;;;;;;4976689;28;20229;-71
2023/06/03 02:27:30;;;;;;;9.43;4.40;;;;;;;;;;4968671;28;20191;-71
2023/06/03 02:29:55;;;;;;;7.30;4.30;;;;;;;;;;4967433;28;20203;-72
2023/06/03 02:32:20;;;;;;;9.63;4.77;;;;;;;;;;4966791;28;20194;-71
2023/06/03 02:34:47;;;;;;;8.80;5.23;;;;;;;;;;4971744;28;20200;-72
2023/06/03 02:37:13;;;;;;;9.70;4.77;;;;;;;;;;4974260;28;20243;-71
2023/06/03 02:39:38;;;;;;;6.80;4.70;;;;;;;;;;4970153;28;20175;-71
2023/06/03 02:42:04;;;;;;;8.60;4.57;;;;;;;;;;4978638;28;20223;-71
2023/06/03 02:44:29;;;;;;;7.40;4.53;;;;;;;;;;4967271;28;20315;-71
2023/06/03 02:46:54;;;;;;;5.47;4.37;;;;;;;;;;4966704;28;20183;-72
2023/06/03 02:49:19;;;;;;;5.87;3.97;;;;;;;;;;4964168;28;20183;-72
2023/06/03 02:51:45;;;;;;;5.27;4.07;;;;;;;;;;4968416;28;20193;-71
2023/06/03 02:54:10;;;;;;;8.43;4.10;;;;;;;;;;4966550;28;20211;-72
2023/06/03 02:56:35;;;;;;;6.83;3.93;;;;;;;;;;4965692;28;20242;-71
2023/06/03 02:59:00;;;;;;;10.40;4.63;;;;;;;;;;4966544;28;20187;-71
2023/06/03 03:01:26;;;;;;;6.97;4.30;;;;;;;;;;4973684;28;20293;-71
2023/06/03 03:03:51;;;;;;;6.87;4.10;;;;;;;;;;4967119;28;20250;-71
2023/06/03 03:06:19;;;;;;;8.30;4.77;;;;;;;;;;4964955;28;20199;-71
2023/06/03 03:08:45;;;;;;;7.30;4.33;;;;;;;;;;4973077;28;20225;-71
2023/06/03 03:11:10;;;;;;;7.00;4.60;;;;;;;;;;4983495;28;20202;-71
2023/06/03 03:13:35;;;;;;;8.77;4.43;;;;;;;;;;4968904;28;20207;-71
2023/06/03 03:16:01;;;;;;;6.90;4.10;;;;;;;;;;4972001;28;20248;-72
2023/06/03 03:18:26;;;;;;;8.47;4.00;;;;;;;;;;4969421;28;20272;-72
2023/06/03 03:20:51;;;;;;;6.73;3.97;;;;;;;;;;4974506;28;20187;-71
2023/06/03 03:23:17;;;;;;;7.73;4.23;;;;;;;;;;5001789;28;20180;-71
2023/06/03 03:25:42;;;;;;;10.23;4.57;;;;;;;;;;4983981;28;20213;-71
2023/06/03 03:28:07;;;;;;;6.93;4.20;;;;;;;;;;4971885;28;20265;-71
2023/06/03 03:30:36;;;;;;;7.47;4.60;;;;;;;;;;4974196;28;20207;-71
2023/06/03 03:33:01;;;;;;;15.90;4.90;;;;;;;;;;4989792;28;20278;-71
2023/06/03 03:35:26;;;;;;;8.57;4.27;;;;;;;;;;4972066;28;20272;-71
2023/06/03 03:38:01;;;;;;;5.00;3.83;;;;;;;;;;4974626;28;20175;-72
2023/06/03 03:40:27;;;;;;;8.20;3.50;;;;;;;;;;4970692;28;20191;-71
2023/06/03 03:42:53;;;;;;;9.70;4.83;;;;;;;;;;4970586;28;20247;-71
2023/06/03 03:45:21;;;;;;;10.90;4.40;;;;;;;;;;4977353;28;20170;-71
2023/06/03 03:47:57;;;;;;;8.70;4.23;;;;;;;;;;4973319;28;20182;-72
2023/06/03 03:50:37;;;;;;;5.77;4.20;;;;;;;;;;4968235;28;20190;-71
2023/06/03 03:53:04;;;;;;;10.10;4.70;;;;;;;;;;4972727;28;20201;-71
2023/06/03 03:55:29;;;;;;;8.90;4.53;;;;;;;;;;4969399;28;20274;-71
2023/06/03 03:57:55;;;;;;;9.23;4.90;;;;;;;;;;4978001;28;20284;-72
2023/06/03 04:00:21;;;;;;;6.27;4.47;;;;;;;;;;4971387;28;20204;-71
2023/06/03 04:02:47;;;;;;;7.90;4.40;;;;;;;;;;4987360;28;20240;-71
2023/06/03 04:05:15;;;;;;;4.30;3.70;;;;;;;;;;4968623;28;20174;-72
2023/06/03 04:07:42;;;;;;;7.20;3.93;;;;;;;;;;4972850;28;20182;-71
2023/06/03 04:10:09;;;;;;;10.20;4.07;;;;;;;;;;4973604;28;20184;-71
2023/06/03 04:12:36;;;;;;;4.70;4.07;;;;;;;;;;4970628;28;20185;-71
2023/06/03 04:15:01;;;;;;;7.63;4.43;;;;;;;;;;4971092;28;20170;-71
2023/06/03 04:17:27;;;;;;;7.60;6.43;;;;;;;;;;4972070;28;20190;-71
2023/06/03 04:19:53;;;;;;;7.20;4.03;;;;;;;;;;4967468;28;20182;-72
2023/06/03 04:22:20;;;;;;;7.03;4.20;;;;;;;;;;4968509;28;20187;-72
2023/06/03 04:24:46;;;;;;;7.83;4.00;;;;;;;;;;4973439;28;20276;-71
2023/06/03 04:27:12;;;;;;;6.57;4.53;;;;;;;;;;4990866;28;20299;-71
2023/06/03 04:29:37;;;;;;;7.90;5.07;;;;;;;;;;4973142;28;20202;-72
2023/06/03 04:32:03;;;;;;;8.07;4.67;;;;;;;;;;4967222;28;20229;-71
2023/06/03 04:34:28;;;;;;;8.60;3.70;;;;;;;;;;4972443;28;20213;-72
2023/06/03 04:36:54;;;;;;;10.10;4.47;;;;;;;;;;4970365;28;20173;-71
2023/06/03 04:39:19;;;;;;;15.60;4.73;;;;;;;;;;4971197;28;20185;-71
2023/06/03 04:41:44;;;;;;;7.07;4.17;;;;;;;;;;4974504;28;20171;-71
2023/06/03 04:44:11;;;;;;;7.80;4.43;;;;;;;;;;4967435;28;20182;-71
2023/06/03 04:46:36;;;;;;;11.00;4.67;;;;;;;;;;4967591;28;20185;-71
2023/06/03 04:49:01;;;;;;;9.43;3.77;;;;;;;;;;4980606;28;20186;-72
2023/06/03 04:51:27;;;;;;;7.83;4.87;;;;;;;;;;4973683;28;20190;-71
2023/06/03 04:53:56;;;;;;;6.17;4.37;;;;;;;;;;4969069;28;20309;-72
2023/06/03 04:56:24;;;;;;;6.03;4.10;;;;;;;;;;4969897;28;20250;-71
2023/06/03 04:58:54;;;;;;;8.20;4.37;;;;;;;;;;4971557;28;20207;-71
2023/06/03 05:01:21;;;;;;;8.27;4.20;;;;;;;;;;4972091;28;20179;-72
2023/06/03 05:03:46;;;;;;;11.80;4.90;;;;;;;;;;4964133;28;20235;-71
2023/06/03 05:06:11;;;;;;;10.47;4.40;;;;;;;;;;4973765;28;20185;-71
2023/06/03 05:08:40;;;;;;;9.93;4.33;;;;;;;;;;4968441;28;20187;-71
2023/06/03 05:11:05;;;;;;;6.03;4.07;;;;;;;;;;4968189;28;20183;-72
2023/06/03 05:13:31;;;;;;;8.13;4.30;;;;;;;;;;4967104;28;20202;-71
2023/06/03 05:15:56;;;;;;;9.57;4.83;;;;;;;;;;4971730;28;20189;-72
2023/06/03 05:18:21;;;;;;;15.17;5.03;;;;;;;;;;4969988;28;20217;-72
2023/06/03 05:20:46;;;;;;;9.10;3.93;;;;;;;;;;4968869;28;20266;-71
2023/06/03 05:23:12;;;;;;;9.60;4.60;;;;;;;;;;4969543;28;20199;-72
2023/06/03 05:25:37;;;;;;;10.00;4.43;;;;;;;;;;4972845;28;20266;-72
2023/06/03 05:28:02;;;;;;;6.67;4.13;;;;;;;;;;4968132;28;20226;-72
2023/06/03 05:30:27;;;;;;;9.10;4.07;;;;;;;;;;4969794;28;20227;-72
2023/06/03 05:32:52;;;;;;;7.73;4.03;;;;;;;;;;4967793;28;20213;-72
2023/06/03 05:35:19;;;;;;;11.17;4.50;;;;;;;;;;4969970;28;20181;-72
2023/06/03 05:37:44;;;;;;;10.00;4.30;;;;;;;;;;4963445;28;20179;-71
2023/06/03 05:40:10;;;;;;;5.67;4.10;;;;;;;;;;4965363;28;20173;-72
2023/06/03 05:42:35;;;;;;;9.60;4.60;;;;;;;;;;4969524;28;20182;-72
2023/06/03 05:45:00;;;;;;;7.37;4.47;;;;;;;;;;4969518;28;20276;-72
2023/06/03 05:47:26;;;;;;;9.10;4.30;;;;;;;;;;4965683;28;20178;-72
2023/06/03 05:49:51;;;;;;;9.70;4.13;;;;;;;;;;4969969;28;20263;-72
2023/06/03 05:52:16;;;;;;;6.63;4.17;;;;;;;;;;4970720;28;20213;-72
2023/06/03 05:54:42;;;;;;;5.90;3.70;;;;;;;;;;4966722;28;20268;-72
2023/06/03 05:57:07;;;;;;;8.10;4.97;;;;;;;;;;4965201;28;20212;-72
2023/06/03 05:59:32;;;;;;;10.17;4.37;;;;;;;;;;4970257;28;20236;-72
2023/06/03 06:01:57;;;;;;;6.40;4.23;;;;;;;;;;4969357;28;20270;-72
2023/06/03 06:04:22;;;;;;;7.00;4.30;;;;;;;;;;4969398;28;20235;-72
2023/06/03 06:06:48;;;;;;;14.47;5.20;;;;;;;;;;4974114;28;20239;-72
2023/06/03 06:09:13;;;;;;;7.23;4.63;;;;;;;;;;4969431;28;20194;-72
2023/06/03 06:11:38;;;;;;;9.73;4.83;;;;;;;;;;4969701;28;20184;-72
2023/06/03 06:14:04;;;;;;;6.97;5.17;;;;;;;;;;4968496;28;20196;-71
2023/06/03 06:16:29;;;;;;;8.87;4.33;;;;;;;;;;4968784;28;20215;-71
2023/06/03 06:18:56;;;;;;;7.13;4.77;;;;;;;;;;4966673;28;20188;-71
2023/06/03 06:21:21;;;;;;;4.57;4.13;;;;;;;;;;4971891;28;20182;-72
2023/06/03 06:23:46;;;;;;;5.47;4.00;;;;;;;;;;4971823;28;20184;-71
2023/06/03 06:26:16;;;;;;;7.27;4.30;;;;;;;;;;4968357;28;20180;-71
2023/06/03 06:28:41;;;;;;;7.50;4.00;;;;;;;;;;4966621;28;20188;-72
2023/06/03 06:31:06;;;;;;;10.87;4.83;;;;;;;;;;4968671;28;20185;-72
2023/06/03 06:33:35;;;;;;;10.40;4.03;;;;;;;;;;4982166;28;20208;-72
2023/06/03 06:36:03;;;;;;;6.60;4.00;;;;;;;;;;4969409;28;20181;-72
2023/06/03 06:38:28;;;;;;;5.30;4.07;;;;;;;;;;4967950;28;20181;-71
2023/06/03 06:40:53;;;;;;;7.87;4.23;;;;;;;;;;5015634;28;20379;-72
2023/06/03 06:43:25;;;;;;;8.90;4.93;;;;;;;;;;4992165;28;20189;-72
2023/06/03 06:45:50;;;;;;;9.67;5.23;;;;;;;;;;4967205;28;20208;-72
2023/06/03 06:48:15;;;;;;;5.10;3.97;;;;;;;;;;4967720;28;20177;-72
2023/06/03 06:50:45;;;;;;;7.37;4.57;;;;;;;;;;4984369;28;20185;-72
2023/06/03 06:53:11;;;;;;;7.00;4.40;;;;;;;;;;4972446;28;20205;-72
2023/06/03 06:55:46;;;;;;;7.90;5.03;;;;;;;;;;4972278;28;20186;-72
2023/06/03 06:58:13;;;;;;;6.87;4.73;;;;;;;;;;4971587;28;20200;-72
2023/06/03 07:00:38;;;;;;;5.70;4.20;;;;;;;;;;4975873;28;20180;-72
2023/06/03 07:03:05;;;;;;;9.20;5.00;;;;;;;;;;4970988;28;20235;-72
2023/06/03 07:05:30;;;;;;;6.27;4.57;;;;;;;;;;4973006;28;20185;-72
2023/06/03 07:07:55;;;;;;;6.87;4.33;;;;;;;;;;4972974;28;20187;-72
2023/06/03 07:10:21;;;;;;;11.10;4.77;;;;;;;;;;4975925;28;20245;-72
2023/06/03 07:12:47;;;;;;;7.83;4.80;;;;;;;;;;4988987;28;20198;-72
2023/06/03 07:15:12;;;;;;;9.83;5.43;;;;;;;;;;4979605;28;20186;-72
2023/06/03 07:17:38;;;;;;;8.47;4.90;;;;;;;;;;4966960;28;20185;-72
2023/06/03 07:20:04;;;;;;;9.50;5.00;;;;;;;;;;4983122;28;20179;-72
2023/06/03 07:22:30;;;;;;;5.90;5.17;;;;;;;;;;4983748;28;20190;-72
2023/06/03 07:24:55;;;;;;;7.13;4.83;;;;;;;;;;4966967;28;20188;-73
2023/06/03 07:27:26;;;;;;;9.57;5.30;;;;;;;;;;4965822;28;20188;-72
2023/06/03 07:29:54;;;;;;;8.57;5.73;;;;;;;;;;4969874;28;20190;-72
2023/06/03 07:32:21;;;;;;;5.70;5.00;;;;;;;;;;4984607;28;20271;-72
2023/06/03 07:34:46;;;;;;;6.63;4.60;;;;;;;;;;4981478;28;20224;-73
2023/06/03 07:37:12;;;;;;;8.23;5.80;;;;;;;;;;4975372;28;20192;-72
2023/06/03 07:39:37;;;;;;;9.13;5.77;;;;;;;;;;4968331;28;20203;-72
2023/06/03 07:42:03;;;;;;;6.60;5.37;;;;;;;;;;4979604;28;20259;-73
2023/06/03 07:44:42;;;;;;;12.80;6.50;;;;;;;;;;4967515;28;20194;-72
2023/06/03 07:47:07;;;;;;;9.40;5.33;;;;;;;;;;4999891;28;20219;-72
2023/06/03 07:49:32;;;;;;;6.97;5.20;;;;;;;;;;4967247;28;20192;-72
2023/06/03 07:51:58;;;;;;;4.80;4.30;;;;;;;;;;4990081;28;20189;-72
2023/06/03 07:54:23;;;;;;;5.57;4.83;;;;;;;;;;4977919;28;20201;-72
2023/06/03 07:56:48;;;;;;;11.00;5.97;;;;;;;;;;4984194;28;20203;-72
2023/06/03 07:59:14;;;;;;;10.87;5.17;;;;;;;;;;4986677;28;20172;-72
2023/06/03 08:01:40;;;;;;;10.27;6.70;;;;;;;;;;4983717;28;20185;-72
2023/06/03 08:04:20;;;;;;;6.77;5.60;;;;;;;;;;4969335;28;20290;-73
2023/06/03 08:06:46;;;;;;;13.33;6.37;;;;;;;;;;4986125;28;20184;-73
2023/06/03 08:09:17;;;;;;;10.77;5.87;;;;;;;;;;4982517;28;20351;-73
2023/06/03 08:11:42;;;;;;;8.13;5.40;;;;;;;;;;4989458;28;20208;-72
2023/06/03 08:14:07;;;;;;;8.57;6.10;;;;;;;;;;4975517;28;20213;-72
2023/06/03 08:16:33;;;;;;;11.47;5.97;;;;;;;;;;4967900;28;20271;-73
2023/06/03 08:19:01;;;;;;;7.83;5.70;;;;;;;;;;4971018;28;20183;-73
2023/06/03 08:21:28;;;;;;;9.10;5.57;;;;;;;;;;4988783;28;20181;-72
2023/06/03 08:23:54;;;;;;;9.07;5.90;;;;;;;;;;4994591;28;20190;-73
2023/06/03 08:26:20;;;;;;;7.33;5.27;;;;;;;;;;4978725;28;20266;-72
2023/06/03 08:28:46;;;;;;;8.87;5.73;;;;;;;;;;4995612;28;20212;-72
2023/06/03 08:31:12;;;;;;;10.67;5.30;;;;;;;;;;4977384;28;20191;-73
2023/06/03 08:33:37;;;;;;;8.07;6.00;;;;;;;;;;4994094;28;20272;-73
2023/06/03 08:36:02;;;;;;;10.60;6.47;;;;;;;;;;4972607;28;20202;-72
2023/06/03 08:38:27;;;;;;;7.30;5.50;;;;;;;;;;4970363;28;20180;-73
2023/06/03 08:40:53;;;;;;;7.93;5.87;;;;;;;;;;4972876;28;20200;-73
2023/06/03 08:43:20;;;;;;;9.03;5.17;;;;;;;;;;4973086;28;20202;-72
2023/06/03 08:45:45;;;;;;;11.03;6.03;;;;;;;;;;4969355;28;20252;-72
2023/06/03 08:48:11;;;;;;;8.10;6.00;;;;;;;;;;4973718;28;20346;-72
2023/06/03 08:50:36;;;;;;;8.37;6.83;;;;;;;;;;4985447;28;20430;-73
2023/06/03 08:53:08;;;;;;;9.63;6.40;;;;;;;;;;4971496;28;20236;-73
2023/06/03 08:55:34;;;;;;;7.80;5.90;;;;;;;;;;4978761;28;20181;-73
2023/06/03 08:58:02;;;;;;;8.63;5.53;;;;;;;;;;4978649;28;20206;-72
2023/06/03 09:00:28;;;;;;;9.57;5.90;;;;;;;;;;4972493;28;20226;-73
2023/06/03 09:02:54;;;;;;;8.93;5.63;;;;;;;;;;4982725;28;20185;-74
2023/06/03 09:05:20;;;;;;;11.27;6.60;;;;;;;;;;4974103;28;20177;-73
2023/06/03 09:07:47;;;;;;;10.27;5.97;;;;;;;;;;4966235;28;20192;-72
2023/06/03 09:10:13;;;;;;;10.83;6.47;;;;;;;;;;4983402;28;20193;-73
2023/06/03 09:12:38;;;;;;;12.33;5.73;;;;;;;;;;4989682;28;20179;-73
2023/06/03 09:15:04;;;;;;;8.33;6.93;;;;;;;;;;4969058;28;20209;-73
2023/06/03 09:17:29;;;;;;;6.53;5.73;;;;;;;;;;4996051;28;20177;-73
2023/06/03 09:19:59;;;;;;;8.93;6.10;;;;;;;;;;4988999;28;20279;-73
2023/06/03 09:22:25;;;;;;;8.27;6.00;;;;;;;;;;4973831;28;20206;-73
2023/06/03 09:24:50;;;;;;;9.03;5.77;;;;;;;;;;5004117;28;20267;-73
2023/06/03 09:27:15;;;;;;;9.90;6.57;;;;;;;;;;4995287;28;20267;-73
2023/06/03 09:29:41;;;;;;;9.90;6.90;;;;;;;;;;4972839;28;20183;-73
2023/06/03 09:32:07;;;;;;;10.23;6.03;;;;;;;;;;4986312;28;20184;-73
2023/06/03 09:34:33;;;;;;;8.63;5.60;;;;;;;;;;4986344;28;20261;-73
2023/06/03 09:37:05;;;;;;;6.70;5.53;;;;;;;;;;4976258;28;20199;-73
2023/06/03 09:39:31;;;;;;;8.63;5.50;;;;;;;;;;4979631;28;20188;-73
2023/06/03 09:41:56;;;;;;;13.73;6.03;;;;;;;;;;4968449;28;20292;-73
2023/06/03 09:44:21;;;;;;;7.40;6.10;;;;;;;;;;4969880;28;20188;-73
2023/06/03 09:46:49;;;;;;;8.80;6.33;;;;;;;;;;4975933;28;20242;-73
2023/06/03 09:49:16;;;;;;;6.60;5.70;;;;;;;;;;4972420;28;20318;-73
2023/06/03 09:51:42;;;;;;;7.83;5.13;;;;;;;;;;4970755;28;20177;-73
2023/06/03 09:54:15;;;;;;;8.13;5.73;;;;;;;;;;4970078;28;20204;-73
2023/06/03 09:56:41;;;;;;;9.80;5.20;;;;;;;;;;4984826;28;20237;-73
2023/06/03 09:59:13;;;;;;;7.67;5.87;;;;;;;;;;4987292;28;20184;-73
2023/06/03 10:01:38;;;;;;;9.50;5.93;;;;;;;;;;4973680;28;20197;-73
2023/06/03 10:04:03;;;;;;;6.93;6.28;;;;;;;;;;4974128;28;20229;-73
2023/06/03 10:06:28;;;;;;;10.10;6.63;;;;;;;;;;4984927;28;20184;-72
2023/06/03 10:08:54;;;;;;;11.43;5.68;;;;;;;;;;4971304;28;20227;-73
2023/06/03 10:11:19;;;;;;;7.60;5.53;;;;;;;;;;4972042;28;20185;-72
2023/06/03 10:13:44;;;;;;;8.10;5.70;;;;;;;;;;4974218;28;20205;-72
2023/06/03 10:16:10;;;;;;;6.40;5.85;;;;;;;;;;4974064;28;20272;-72
2023/06/03 10:18:40;;;;;;;7.05;5.32;;;;;;;;;;4974766;28;20260;-73
2023/06/03 10:21:05;;;;;;;7.37;5.67;;;;;;;;;;4972490;28;20272;-72
2023/06/03 10:23:31;;;;;;;7.15;4.90;;;;;;;;;;4978589;28;20269;-72
2023/06/03 10:25:56;;;;;;;10.85;6.35;;;;;;;;;;4963253;28;20216;-72
2023/06/03 10:28:23;;;;;;;9.10;6.32;;;;;;;;;;4969258;28;20188;-73
2023/06/03 10:30:49;;;;;;;7.22;5.97;;;;;;;;;;4977643;28;20184;-73
2023/06/03 10:33:15;;;;;;;9.20;7.13;;;;;;;;;;4988761;28;20295;-73
2023/06/03 10:35:41;;;;;;;19.85;6.60;;;;;;;;;;4969896;28;20190;-73
2023/06/03 10:38:07;;;;;;;7.60;5.18;;;;;;;;;;4988648;28;20270;-73
2023/06/03 10:40:32;;;;;;;7.22;5.90;;;;;;;;;;4971521;28;20211;-73
2023/06/03 10:42:57;;;;;;;8.00;6.35;;;;;;;;;;4970248;28;20184;-73
2023/06/03 10:45:23;;;;;;;9.00;6.05;;;;;;;;;;4968730;28;20179;-73
2023/06/03 10:47:50;;;;;;;10.48;6.40;;;;;;;;;;4976048;28;20172;-73
2023/06/03 10:50:24;;;;;;;9.68;7.03;;;;;;;;;;4988069;28;20297;-72
2023/06/03 10:53:02;;;;;;;8.52;6.88;;;;;;;;;;4984026;28;20194;-73
2023/06/03 10:55:35;;;;;;;10.82;9.40;;;;;;;;;;4972049;28;20180;-73
2023/06/03 10:58:04;;;;;;;11.80;8.27;;;;;;;;;;4971047;28;20192;-73
2023/06/03 11:00:48;;;;;;;7.38;6.22;;;;;;;;;;4964230;28;20172;-73
2023/06/03 11:03:16;;;;;;;10.93;6.63;;;;;;;;;;5005035;28;20230;-73
2023/06/03 11:05:41;;;;;;;8.90;6.03;;;;;;;;;;4972502;28;20293;-73
2023/06/03 11:08:07;;;;;;;8.63;6.72;;;;;;;;;;4971739;28;20289;-73
2023/06/03 11:10:35;;;;;;;8.00;6.50;;;;;;;;;;4969385;28;20184;-72
2023/06/03 11:13:01;;;;;;;6.80;5.70;;;;;;;;;;4968331;28;20275;-73
2023/06/03 11:15:46;;;;;;;7.20;6.45;;;;;;;;;;4982242;28;20275;-73
2023/06/03 11:18:16;;;;;;;8.70;5.78;;;;;;;;;;4973767;28;20197;-73
2023/06/03 11:20:41;;;;;;;7.80;6.10;;;;;;;;;;4964392;28;20246;-73
2023/06/03 11:23:06;;;;;;;6.85;6.18;;;;;;;;;;4976168;28;20192;-73
2023/06/03 11:25:32;;;;;;;8.60;6.78;;;;;;;;;;4972341;28;20177;-73
2023/06/03 11:28:26;;;;;;;24.55;11.23;;;;;;;;;;4972356;28;20181;-73
2023/06/03 11:30:53;;;;;;;6.70;5.78;;;;;;;;;;4968733;28;20188;-73
2023/06/03 11:33:18;;;;;;;7.03;5.57;;;;;;;;;;4973703;28;20225;-73
2023/06/03 11:35:44;;;;;;;8.00;5.95;;;;;;;;;;4970416;28;20185;-73
2023/06/03 11:38:09;;;;;;;8.18;6.28;;;;;;;;;;4978137;28;20274;-73
2023/06/03 11:40:41;;;;;;;9.95;6.68;;;;;;;;;;4977409;28;20184;-73
2023/06/03 11:43:07;;;;;;;7.13;5.60;;;;;;;;;;4974732;28;20174;-73
2023/06/03 11:45:32;;;;;;;6.60;5.60;;;;;;;;;;4971015;28;20184;-73
2023/06/03 11:47:57;;;;;;;8.07;6.03;;;;;;;;;;4969865;28;20192;-73
2023/06/03 11:50:24;;;;;;;9.27;6.15;;;;;;;;;;4970129;28;20243;-73
2023/06/03 11:52:49;;;;;;;6.55;5.78;;;;;;;;;;4970447;28;20207;-73
2023/06/03 11:55:24;;;;;;;7.20;5.45;;;;;;;;;;4970359;28;20177;-73
2023/06/03 11:57:50;;;;;;;11.88;6.10;;;;;;;;;;4966801;28;20200;-73
2023/06/03 12:00:15;;;;;;;7.15;6.43;;;;;;;;;;4972085;28;20192;-73
2023/06/03 12:02:41;;;;;;;12.52;6.75;;;;;;;;;;4971689;28;20173;-73
2023/06/03 12:05:07;;;;;;;8.05;5.82;;;;;;;;;;4975895;28;20201;-73
2023/06/03 12:07:32;;;;;;;8.57;6.45;;;;;;;;;;4978503;28;20199;-73
2023/06/03 12:09:58;;;;;;;5.95;5.32;;;;;;;;;;4969893;28;20189;-73
2023/06/03 12:12:23;;;;;;;8.50;5.75;;;;;;;;;;4974210;28;20192;-73
2023/06/03 12:14:48;;;;;;;7.38;5.90;;;;;;;;;;4971199;28;20215;-73
2023/06/03 12:17:14;;;;;;;6.45;5.65;;;;;;;;;;4973243;28;20260;-73
2023/06/03 12:19:41;;;;;;;7.60;6.13;;;;;;;;;;4971096;28;20189;-73
2023/06/03 12:22:06;;;;;;;9.48;6.18;;;;;;;;;;4969223;28;20212;-73
2023/06/03 12:24:32;;;;;;;7.70;5.93;;;;;;;;;;4974674;28;20220;-73
2023/06/03 12:27:09;;;;;;;7.35;5.82;;;;;;;;;;4968975;28;20180;-73
2023/06/03 12:29:40;;;;;;;7.65;5.80;;;;;;;;;;4968926;28;20245;-73
2023/06/03 12:32:05;;;;;;;7.55;6.43;;;;;;;;;;4979759;28;20214;-73
2023/06/03 12:34:34;;;;;;;6.97;5.50;;;;;;;;;;4988713;28;20299;-73
2023/06/03 12:37:00;;;;;;;7.95;5.45;;;;;;;;;;4968342;28;20229;-74
2023/06/03 12:39:38;;;;;;;7.22;5.50;;;;;;;;;;4985503;28;20259;-73
2023/06/03 12:42:04;;;;;;;7.57;5.95;;;;;;;;;;4969327;28;20191;-73
2023/06/03 12:44:29;;;;;;;6.53;5.93;;;;;;;;;;4986591;28;20177;-73
2023/06/03 12:47:01;;;;;;;8.07;6.05;;;;;;;;;;4970362;28;20260;-73
2023/06/03 12:49:26;;;;;;;8.55;6.70;;;;;;;;;;4970787;28;20193;-73
2023/06/03 12:51:51;;;;;;;5.85;5.35;;;;;;;;;;4978335;28;20184;-74
2023/06/03 12:54:17;;;;;;;8.52;6.43;;;;;;;;;;4989151;28;20204;-73
2023/06/03 12:56:43;;;;;;;7.60;6.55;;;;;;;;;;4995461;28;20245;-74
2023/06/03 12:59:08;;;;;;;6.88;6.20;;;;;;;;;;4968300;28;20181;-73
2023/06/03 13:01:34;;;;;;;7.00;6.30;;;;;;;;;;4969536;28;20192;-73
2023/06/03 13:04:00;;;;;;;13.15;6.32;;;;;;;;;;4968431;28;20260;-73
2023/06/03 13:06:25;;;;;;;10.07;6.30;;;;;;;;;;4968816;28;20224;-73
2023/06/03 13:08:51;;;;;;;8.32;5.25;;;;;;;;;;4971608;28;20185;-73
2023/06/03 13:11:17;;;;;;;6.38;5.78;;;;;;;;;;4969202;28;20208;-73
2023/06/03 13:13:42;;;;;;;6.78;6.10;;;;;;;;;;4969572;28;20204;-73
2023/06/03 13:16:07;;;;;;;7.68;5.40;;;;;;;;;;4989235;28;20182;-73
2023/06/03 13:18:33;;;;;;;10.02;5.63;;;;;;;;;;4976132;28;20257;-73
2023/06/03 13:20:58;;;;;;;7.28;5.80;;;;;;;;;;4992568;28;20190;-73
2023/06/03 13:23:23;;;;;;;6.63;5.80;;;;;;;;;;4975757;28;20262;-73
2023/06/03 13:25:48;;;;;;;7.10;6.22;;;;;;;;;;4975879;28;20189;-75
2023/06/03 13:28:15;;;;;;;9.82;6.57;;;;;;;;;;4977195;28;20188;-75
2023/06/03 13:30:40;;;;;;;7.38;5.50;;;;;;;;;;4969851;28;20275;-75
2023/06/03 13:33:05;;;;;;;6.25;5.65;;;;;;;;;;4970540;28;20236;-75
2023/06/03 13:35:31;;;;;;;7.63;6.20;;;;;;;;;;4973158;28;20177;-76
2023/06/03 13:37:56;;;;;;;9.55;5.72;;;;;;;;;;4977742;28;20215;-75
2023/06/03 13:40:21;;;;;;;6.55;5.63;;;;;;;;;;4977641;28;20207;-75
2023/06/03 13:42:46;;;;;;;7.72;5.95;;;;;;;;;;4973505;28;20188;-76
2023/06/03 13:45:11;;;;;;;7.85;6.22;;;;;;;;;;4967406;28;20180;-75
2023/06/03 13:47:37;;;;;;;6.50;5.80;;;;;;;;;;4986961;28;20185;-75
2023/06/03 13:50:03;;;;;;;6.93;5.82;;;;;;;;;;4988840;28;20184;-75
2023/06/03 13:52:29;;;;;;;7.47;5.85;;;;;;;;;;4974842;28;20176;-75
2023/06/03 13:54:54;;;;;;;6.65;5.22;;;;;;;;;;4985973;28;20278;-75
2023/06/03 13:57:19;;;;;;;6.75;6.10;;;;;;;;;;4972878;28;20228;-75
2023/06/03 13:59:44;;;;;;;6.60;5.93;;;;;;;;;;4968986;28;20179;-75
2023/06/03 14:02:12;;;;;;;6.47;5.70;;;;;;;;;;4971221;28;20185;-75
2023/06/03 14:04:37;;;;;;;7.72;6.68;;;;;;;;;;4978791;28;20262;-75
2023/06/03 14:07:02;;;;;;;7.03;5.45;;;;;;;;;;4971447;28;20185;-75
2023/06/03 14:09:27;;;;;;;6.30;5.13;;;;;;;;;;4963354;28;20235;-75
2023/06/03 14:11:53;;;;;;;7.35;6.00;;;;;;;;;;4970855;28;20226;-75
2023/06/03 14:14:19;;;;;;;7.68;5.72;;;;;;;;;;4973097;28;20196;-76
2023/06/03 14:16:44;;;;;;;9.45;6.00;;;;;;;;;;4970353;28;20246;-75
2023/06/03 14:19:10;;;;;;;7.43;6.05;;;;;;;;;;4983834;28;20184;-76
2023/06/03 14:21:35;;;;;;;6.60;5.68;;;;;;;;;;4976343;28;20202;-76
2023/06/03 14:24:00;;;;;;;7.80;5.45;;;;;;;;;;4983394;28;20180;-75
2023/06/03 14:26:26;;;;;;;7.35;5.55;;;;;;;;;;4968180;28;20192;-76
2023/06/03 14:28:51;;;;;;;6.00;5.50;;;;;;;;;;4986070;28;20263;-76
2023/06/03 14:31:16;;;;;;;8.15;5.35;;;;;;;;;;5002574;28;20218;-75
2023/06/03 14:33:42;;;;;;;13.20;6.15;;;;;;;;;;4965290;28;20239;-76
2023/06/03 14:36:07;;;;;;;6.43;5.82;;;;;;;;;;4967336;28;20180;-76